Terminal Aerodrome Forecast
Issued by NWS Cleveland, OH

Home | Current Version | Previous Version | Text Only | Print | Product List | Glossary On
Versions: 1 2 3 4 5 6 7 8 9 10 11 12 13 14 15 16 17 18 19 20 21
000
FTUS41 KCLE 020500
TAFERI
TAF
KERI 020520Z 0206/0306 16006KT P6SM SCT250
     FM021700 23006KT P6SM FEW035 SCT200
     FM022100 16008KT P6SM SCT100 BKN200
     FM022300 13006KT P6SM BKN150
     FM030200 16010KT P6SM BKN250=

USA.gov is the U.S. government's official web portal to all federal, state and local government web resources and services.